sensor_id;sensor_type;location;lat;lon;timestamp;pressure;altitude;pressure_sealevel;temperature
70533;BMP180;58088;51.186;17.130;2023-07-13T00:01:48;99907.00;;;22.80
70533;BMP180;58088;51.186;17.130;2023-07-13T00:04:20;99903.00;;;22.80
70533;BMP180;58088;51.186;17.130;2023-07-13T00:06:47;99906.20;;;22.90
70533;BMP180;58088;51.186;17.130;2023-07-13T00:09:15;99911.80;;;22.80
70533;BMP180;58088;51.186;17.130;2023-07-13T00:11:44;99917.40;;;22.80
70533;BMP180;58088;51.186;17.130;2023-07-13T00:14:11;99912.60;;;22.80
70533;BMP180;58088;51.186;17.130;2023-07-13T00:16:39;99906.80;;;22.70
70533;BMP180;58088;51.186;17.130;2023-07-13T00:19:11;99896.60;;;22.60
70533;BMP180;58088;51.186;17.130;2023-07-13T00:21:40;99900.80;;;22.60
70533;BMP180;58088;51.186;17.130;2023-07-13T00:24:10;99899.00;;;22.60
70533;BMP180;58088;51.186;17.130;2023-07-13T00:26:40;99896.40;;;22.60
70533;BMP180;58088;51.186;17.130;2023-07-13T00:29:06;99894.20;;;22.60
70533;BMP180;58088;51.186;17.130;2023-07-13T00:31:35;99896.20;;;22.60
70533;BMP180;58088;51.186;17.130;2023-07-13T00:34:02;99896.60;;;22.60
70533;BMP180;58088;51.186;17.130;2023-07-13T00:36:30;99898.80;;;22.60
70533;BMP180;58088;51.186;17.130;2023-07-13T00:38:57;99905.00;;;22.50
70533;BMP180;58088;51.186;17.130;2023-07-13T00:41:24;99910.60;;;22.50
70533;BMP180;58088;51.186;17.130;2023-07-13T00:43:50;99910.60;;;22.50
70533;BMP180;58088;51.186;17.130;2023-07-13T00:46:30;99900.20;;;22.50
70533;BMP180;58088;51.186;17.130;2023-07-13T00:49:02;99901.00;;;22.50
70533;BMP180;58088;51.186;17.130;2023-07-13T00:51:58;99895.60;;;22.46
70533;BMP180;58088;51.186;17.130;2023-07-13T00:54:46;99905.40;;;22.40
70533;BMP180;58088;51.186;17.130;2023-07-13T00:57:21;99908.00;;;22.40
70533;BMP180;58088;51.186;17.130;2023-07-13T00:59:53;99910.40;;;22.40
70533;BMP180;58088;51.186;17.130;2023-07-13T01:02:20;99913.80;;;22.30
70533;BMP180;58088;51.186;17.130;2023-07-13T01:04:49;99915.60;;;22.30
70533;BMP180;58088;51.186;17.130;2023-07-13T01:07:16;99910.60;;;22.30
70533;BMP180;58088;51.186;17.130;2023-07-13T01:09:42;99912.40;;;22.20
70533;BMP180;58088;51.186;17.130;2023-07-13T01:12:08;99923.60;;;22.20
70533;BMP180;58088;51.186;17.130;2023-07-13T01:14:34;99929.40;;;22.10
70533;BMP180;58088;51.186;17.130;2023-07-13T01:17:01;99928.80;;;22.00
70533;BMP180;58088;51.186;17.130;2023-07-13T01:19:45;99935.60;;;21.90
70533;BMP180;58088;51.186;17.130;2023-07-13T01:22:15;99930.00;;;21.90
70533;BMP180;58088;51.186;17.130;2023-07-13T01:24:45;99925.80;;;21.90
70533;BMP180;58088;51.186;17.130;2023-07-13T01:27:16;99921.60;;;21.90
70533;BMP180;58088;51.186;17.130;2023-07-13T01:29:45;99909.60;;;21.90
70533;BMP180;58088;51.186;17.130;2023-07-13T01:32:23;99906.00;;;21.98
70533;BMP180;58088;51.186;17.130;2023-07-13T01:34:54;99905.80;;;21.92
70533;BMP180;58088;51.186;17.130;2023-07-13T01:37:21;99904.40;;;21.90
70533;BMP180;58088;51.186;17.130;2023-07-13T01:39:48;99902.60;;;21.90
70533;BMP180;58088;51.186;17.130;2023-07-13T01:42:14;99900.20;;;21.90
70533;BMP180;58088;51.186;17.130;2023-07-13T01:44:41;99900.80;;;21.90
70533;BMP180;58088;51.186;17.130;2023-07-13T01:47:07;99897.60;;;21.90
70533;BMP180;58088;51.186;17.130;2023-07-13T01:49:34;99896.20;;;21.90
70533;BMP180;58088;51.186;17.130;2023-07-13T01:52:00;99888.20;;;21.90
70533;BMP180;58088;51.186;17.130;2023-07-13T01:54:26;99884.60;;;21.88
70533;BMP180;58088;51.186;17.130;2023-07-13T01:56:53;99879.80;;;21.80
70533;BMP180;58088;51.186;17.130;2023-07-13T01:59:19;99891.40;;;21.70
70533;BMP180;58088;51.186;17.130;2023-07-13T02:01:55;99888.80;;;21.70
70533;BMP180;58088;51.186;17.130;2023-07-13T02:04:40;99889.20;;;21.60
70533;BMP180;58088;51.186;17.130;2023-07-13T02:07:08;99894.80;;;21.60
70533;BMP180;58088;51.186;17.130;2023-07-13T02:09:35;99897.40;;;21.50
70533;BMP180;58088;51.186;17.130;2023-07-13T02:12:02;99899.60;;;21.50
70533;BMP180;58088;51.186;17.130;2023-07-13T02:14:31;99886.80;;;21.46
70533;BMP180;58088;51.186;17.130;2023-07-13T02:16:57;99882.60;;;21.40
70533;BMP180;58088;51.186;17.130;2023-07-13T02:19:23;99882.00;;;21.36
70533;BMP180;58088;51.186;17.130;2023-07-13T02:21:50;99875.80;;;21.30
70533;BMP180;58088;51.186;17.130;2023-07-13T02:24:17;99869.00;;;21.30
70533;BMP180;58088;51.186;17.130;2023-07-13T02:26:45;99864.00;;;21.20
70533;BMP180;58088;51.186;17.130;2023-07-13T02:29:11;99868.60;;;21.20
70533;BMP180;58088;51.186;17.130;2023-07-13T02:31:38;99865.60;;;21.04
70533;BMP180;58088;51.186;17.130;2023-07-13T02:34:04;99865.40;;;20.90
70533;BMP180;58088;51.186;17.130;2023-07-13T02:36:31;99862.40;;;20.90
70533;BMP180;58088;51.186;17.130;2023-07-13T02:39:02;99850.80;;;20.80
70533;BMP180;58088;51.186;17.130;2023-07-13T02:41:29;99853.20;;;20.80
70533;BMP180;58088;51.186;17.130;2023-07-13T02:43:55;99848.20;;;20.80
70533;BMP180;58088;51.186;17.130;2023-07-13T02:46:33;99849.80;;;20.70
70533;BMP180;58088;51.186;17.130;2023-07-13T02:49:00;99846.20;;;20.70
70533;BMP180;58088;51.186;17.130;2023-07-13T02:51:26;99849.20;;;20.70
70533;BMP180;58088;51.186;17.130;2023-07-13T02:53:53;99851.60;;;20.70
70533;BMP180;58088;51.186;17.130;2023-07-13T02:56:24;99851.20;;;20.62
70533;BMP180;58088;51.186;17.130;2023-07-13T02:58:51;99855.80;;;20.60
70533;BMP180;58088;51.186;17.130;2023-07-13T03:01:18;99849.60;;;20.60
70533;BMP180;58088;51.186;17.130;2023-07-13T03:03:46;99860.40;;;20.60
70533;BMP180;58088;51.186;17.130;2023-07-13T03:06:14;99872.20;;;20.62
70533;BMP180;58088;51.186;17.130;2023-07-13T03:08:46;99878.20;;;20.70
70533;BMP180;58088;51.186;17.130;2023-07-13T03:11:19;99879.80;;;20.70
70533;BMP180;58088;51.186;17.130;2023-07-13T03:13:49;99885.00;;;20.70
70533;BMP180;58088;51.186;17.130;2023-07-13T03:16:16;99880.00;;;20.70
70533;BMP180;58088;51.186;17.130;2023-07-13T03:18:45;99878.00;;;20.70
70533;BMP180;58088;51.186;17.130;2023-07-13T03:21:12;99880.60;;;20.88
70533;BMP180;58088;51.186;17.130;2023-07-13T03:23:39;99882.20;;;21.10
70533;BMP180;58088;51.186;17.130;2023-07-13T03:26:14;99871.60;;;21.34
70533;BMP180;58088;51.186;17.130;2023-07-13T03:28:42;99870.40;;;21.66
70533;BMP180;58088;51.186;17.130;2023-07-13T03:31:19;99873.60;;;21.98
70533;BMP180;58088;51.186;17.130;2023-07-13T03:33:46;99874.00;;;22.20
70533;BMP180;58088;51.186;17.130;2023-07-13T03:36:23;99874.40;;;22.20
70533;BMP180;58088;51.186;17.130;2023-07-13T03:38:57;99865.20;;;22.40
70533;BMP180;58088;51.186;17.130;2023-07-13T03:41:27;99868.60;;;22.40
70533;BMP180;58088;51.186;17.130;2023-07-13T03:43:54;99872.20;;;22.30
70533;BMP180;58088;51.186;17.130;2023-07-13T03:46:22;99883.40;;;22.30
70533;BMP180;58088;51.186;17.130;2023-07-13T03:48:48;99883.00;;;22.30
70533;BMP180;58088;51.186;17.130;2023-07-13T03:51:17;99873.60;;;22.30
70533;BMP180;58088;51.186;17.130;2023-07-13T03:53:46;99872.20;;;22.22
70533;BMP180;58088;51.186;17.130;2023-07-13T03:56:17;99866.40;;;22.20
70533;BMP180;58088;51.186;17.130;2023-07-13T03:58:46;99864.20;;;22.20
70533;BMP180;58088;51.186;17.130;2023-07-13T04:01:19;99867.00;;;22.20
70533;BMP180;58088;51.186;17.130;2023-07-13T04:03:46;99877.00;;;22.18
70533;BMP180;58088;51.186;17.130;2023-07-13T04:06:18;99876.60;;;22.20
70533;BMP180;58088;51.186;17.130;2023-07-13T04:08:51;99877.40;;;22.20
70533;BMP180;58088;51.186;17.130;2023-07-13T04:11:19;99870.60;;;22.20
70533;BMP180;58088;51.186;17.130;2023-07-13T04:13:48;99879.20;;;22.20
70533;BMP180;58088;51.186;17.130;2023-07-13T04:16:17;99884.60;;;22.28
70533;BMP180;58088;51.186;17.130;2023-07-13T04:18:46;99892.00;;;22.30
70533;BMP180;58088;51.186;17.130;2023-07-13T04:21:14;99893.20;;;22.30
70533;BMP180;58088;51.186;17.130;2023-07-13T04:23:41;99898.80;;;22.40
70533;BMP180;58088;51.186;17.130;2023-07-13T04:26:08;99914.40;;;22.40
70533;BMP180;58088;51.186;17.130;2023-07-13T04:28:34;99922.80;;;22.50
70533;BMP180;58088;51.186;17.130;2023-07-13T04:31:01;99942.20;;;22.50
70533;BMP180;58088;51.186;17.130;2023-07-13T04:33:28;99969.20;;;22.48
70533;BMP180;58088;51.186;17.130;2023-07-13T04:35:56;99994.00;;;22.30
70533;BMP180;58088;51.186;17.130;2023-07-13T04:38:26;100000.00;;;22.20
70533;BMP180;58088;51.186;17.130;2023-07-13T04:41:06;100014.40;;;22.10
70533;BMP180;58088;51.186;17.130;2023-07-13T04:43:34;100045.80;;;21.90
70533;BMP180;58088;51.186;17.130;2023-07-13T04:46:06;100069.00;;;21.80
70533;BMP180;58088;51.186;17.130;2023-07-13T04:48:33;100094.20;;;21.50
70533;BMP180;58088;51.186;17.130;2023-07-13T04:51:00;100121.60;;;21.28
70533;BMP180;58088;51.186;17.130;2023-07-13T04:53:28;100151.60;;;21.02
70533;BMP180;58088;51.186;17.130;2023-07-13T04:55:55;100174.60;;;20.78
70533;BMP180;58088;51.186;17.130;2023-07-13T04:58:25;100192.60;;;20.50
70533;BMP180;58088;51.186;17.130;2023-07-13T05:00:52;100198.60;;;20.28
70533;BMP180;58088;51.186;17.130;2023-07-13T05:03:18;100190.40;;;20.04
70533;BMP180;58088;51.186;17.130;2023-07-13T05:05:59;100184.80;;;19.90
70533;BMP180;58088;51.186;17.130;2023-07-13T05:08:26;100186.20;;;19.70
70533;BMP180;58088;51.186;17.130;2023-07-13T05:10:53;100189.00;;;19.60
70533;BMP180;58088;51.186;17.130;2023-07-13T05:13:19;100185.00;;;19.50
70533;BMP180;58088;51.186;17.130;2023-07-13T05:15:56;100173.80;;;19.50
70533;BMP180;58088;51.186;17.130;2023-07-13T05:18:23;100159.00;;;19.42
70533;BMP180;58088;51.186;17.130;2023-07-13T05:21:08;100158.20;;;19.48
70533;BMP180;58088;51.186;17.130;2023-07-13T05:23:37;100159.40;;;19.42
70533;BMP180;58088;51.186;17.130;2023-07-13T05:26:04;100157.40;;;19.50
70533;BMP180;58088;51.186;17.130;2023-07-13T05:28:31;100150.60;;;19.50
70533;BMP180;58088;51.186;17.130;2023-07-13T05:30:59;100139.60;;;19.50
70533;BMP180;58088;51.186;17.130;2023-07-13T05:33:27;100138.00;;;19.50
70533;BMP180;58088;51.186;17.130;2023-07-13T05:35:54;100133.80;;;19.50
70533;BMP180;58088;51.186;17.130;2023-07-13T05:38:20;100131.00;;;19.50
70533;BMP180;58088;51.186;17.130;2023-07-13T05:40:47;100121.80;;;19.50
70533;BMP180;58088;51.186;17.130;2023-07-13T05:43:15;100096.80;;;19.50
70533;BMP180;58088;51.186;17.130;2023-07-13T05:45:41;100061.20;;;19.50
70533;BMP180;58088;51.186;17.130;2023-07-13T05:48:07;100034.00;;;19.50
70533;BMP180;58088;51.186;17.130;2023-07-13T05:50:33;100014.40;;;19.40
70533;BMP180;58088;51.186;17.130;2023-07-13T05:53:00;100011.20;;;19.38
70533;BMP180;58088;51.186;17.130;2023-07-13T05:55:26;100020.60;;;19.30
70533;BMP180;58088;51.186;17.130;2023-07-13T05:57:52;100020.80;;;19.30
70533;BMP180;58088;51.186;17.130;2023-07-13T06:00:20;100023.60;;;19.30
70533;BMP180;58088;51.186;17.130;2023-07-13T06:02:46;100022.20;;;19.30
70533;BMP180;58088;51.186;17.130;2023-07-13T06:05:14;100027.20;;;19.40
70533;BMP180;58088;51.186;17.130;2023-07-13T06:07:44;100026.80;;;19.40
70533;BMP180;58088;51.186;17.130;2023-07-13T06:10:10;100016.20;;;19.50
70533;BMP180;58088;51.186;17.130;2023-07-13T06:12:36;100008.20;;;19.50
70533;BMP180;58088;51.186;17.130;2023-07-13T06:15:03;100001.80;;;19.58
70533;BMP180;58088;51.186;17.130;2023-07-13T06:17:30;100013.00;;;19.60
70533;BMP180;58088;51.186;17.130;2023-07-13T06:19:57;100023.20;;;19.60
70533;BMP180;58088;51.186;17.130;2023-07-13T06:22:23;100029.20;;;19.70
70533;BMP180;58088;51.186;17.130;2023-07-13T06:24:49;100026.60;;;19.70
70533;BMP180;58088;51.186;17.130;2023-07-13T06:27:15;100032.80;;;19.80
70533;BMP180;58088;51.186;17.130;2023-07-13T06:29:42;100055.00;;;19.90
70533;BMP180;58088;51.186;17.130;2023-07-13T06:32:11;100057.80;;;20.00
70533;BMP180;58088;51.186;17.130;2023-07-13T06:34:37;100053.60;;;20.10
70533;BMP180;58088;51.186;17.130;2023-07-13T06:37:04;100052.00;;;20.30
70533;BMP180;58088;51.186;17.130;2023-07-13T06:39:31;100053.40;;;20.50
70533;BMP180;58088;51.186;17.130;2023-07-13T06:41:57;100056.40;;;20.60
70533;BMP180;58088;51.186;17.130;2023-07-13T06:44:24;100063.40;;;20.70
70533;BMP180;58088;51.186;17.130;2023-07-13T06:46:50;100069.60;;;20.74
70533;BMP180;58088;51.186;17.130;2023-07-13T06:49:16;100074.80;;;20.86
70533;BMP180;58088;51.186;17.130;2023-07-13T06:51:42;100075.40;;;20.96
70533;BMP180;58088;51.186;17.130;2023-07-13T06:54:08;100091.00;;;21.10
70533;BMP180;58088;51.186;17.130;2023-07-13T06:56:35;100106.60;;;21.20
70533;BMP180;58088;51.186;17.130;2023-07-13T06:59:01;100110.00;;;21.20
70533;BMP180;58088;51.186;17.130;2023-07-13T07:01:28;100115.80;;;21.20
70533;BMP180;58088;51.186;17.130;2023-07-13T07:03:54;100135.20;;;21.20
70533;BMP180;58088;51.186;17.130;2023-07-13T07:06:22;100150.20;;;21.20
70533;BMP180;58088;51.186;17.130;2023-07-13T07:08:52;100162.80;;;21.10
70533;BMP180;58088;51.186;17.130;2023-07-13T07:11:23;100159.40;;;20.98
70533;BMP180;58088;51.186;17.130;2023-07-13T07:13:52;100158.80;;;20.90
70533;BMP180;58088;51.186;17.130;2023-07-13T07:16:20;100159.40;;;20.90
70533;BMP180;58088;51.186;17.130;2023-07-13T07:18:47;100164.80;;;20.80
70533;BMP180;58088;51.186;17.130;2023-07-13T07:21:14;100175.20;;;20.80
70533;BMP180;58088;51.186;17.130;2023-07-13T07:23:41;100183.20;;;20.70
70533;BMP180;58088;51.186;17.130;2023-07-13T07:26:08;100185.80;;;20.70
70533;BMP180;58088;51.186;17.130;2023-07-13T07:28:36;100195.80;;;20.70
70533;BMP180;58088;51.186;17.130;2023-07-13T07:31:02;100207.40;;;20.74
70533;BMP180;58088;51.186;17.130;2023-07-13T07:33:28;100215.20;;;20.80
70533;BMP180;58088;51.186;17.130;2023-07-13T07:35:54;100226.80;;;20.80
70533;BMP180;58088;51.186;17.130;2023-07-13T07:38:20;100218.20;;;20.70
70533;BMP180;58088;51.186;17.130;2023-07-13T07:40:47;100214.60;;;20.72
70533;BMP180;58088;51.186;17.130;2023-07-13T07:43:13;100188.40;;;20.70
70533;BMP180;58088;51.186;17.130;2023-07-13T07:45:40;100175.60;;;20.70
70533;BMP180;58088;51.186;17.130;2023-07-13T07:48:08;100159.20;;;20.70
70533;BMP180;58088;51.186;17.130;2023-07-13T07:50:35;100122.60;;;20.70
70533;BMP180;58088;51.186;17.130;2023-07-13T07:53:03;100088.80;;;20.64
70533;BMP180;58088;51.186;17.130;2023-07-13T07:55:34;100039.40;;;20.50
70533;BMP180;58088;51.186;17.130;2023-07-13T07:58:05;99999.20;;;20.40
70533;BMP180;58088;51.186;17.130;2023-07-13T08:00:31;100000.40;;;20.40
70533;BMP180;58088;51.186;17.130;2023-07-13T08:02:58;100014.20;;;20.40
70533;BMP180;58088;51.186;17.130;2023-07-13T08:05:25;100016.80;;;20.50
70533;BMP180;58088;51.186;17.130;2023-07-13T08:07:52;100026.80;;;20.60
70533;BMP180;58088;51.186;17.130;2023-07-13T08:10:18;100041.40;;;20.60
70533;BMP180;58088;51.186;17.130;2023-07-13T08:12:45;100060.00;;;20.70
70533;BMP180;58088;51.186;17.130;2023-07-13T08:15:15;100073.20;;;20.84
70533;BMP180;58088;51.186;17.130;2023-07-13T08:17:41;100083.20;;;20.96
70533;BMP180;58088;51.186;17.130;2023-07-13T08:20:09;100098.60;;;21.10
70533;BMP180;58088;51.186;17.130;2023-07-13T08:22:35;100110.20;;;21.20
70533;BMP180;58088;51.186;17.130;2023-07-13T08:25:02;100117.20;;;21.40
70533;BMP180;58088;51.186;17.130;2023-07-13T08:27:29;100125.00;;;21.64
70533;BMP180;58088;51.186;17.130;2023-07-13T08:29:55;100127.00;;;21.82
70533;BMP180;58088;51.186;17.130;2023-07-13T08:32:23;100133.00;;;22.00
70533;BMP180;58088;51.186;17.130;2023-07-13T08:34:50;100136.60;;;22.16
70533;BMP180;58088;51.186;17.130;2023-07-13T08:37:18;100139.20;;;22.30
70533;BMP180;58088;51.186;17.130;2023-07-13T08:39:44;100148.20;;;22.50
70533;BMP180;58088;51.186;17.130;2023-07-13T08:48:23;100166.20;;;22.80
70533;BMP180;58088;51.186;17.130;2023-07-13T08:51:16;100168.80;;;22.80
70533;BMP180;58088;51.186;17.130;2023-07-13T08:53:50;100172.60;;;22.86
70533;BMP180;58088;51.186;17.130;2023-07-13T08:56:29;100177.20;;;22.94
70533;BMP180;58088;51.186;17.130;2023-07-13T08:59:10;100178.40;;;23.00
70533;BMP180;58088;51.186;17.130;2023-07-13T09:08:05;100193.00;;;23.00
70533;BMP180;58088;51.186;17.130;2023-07-13T09:10:53;100195.20;;;23.20
70533;BMP180;58088;51.186;17.130;2023-07-13T09:14:04;100193.00;;;23.30
70533;BMP180;58088;51.186;17.130;2023-07-13T09:16:34;100193.00;;;23.58
70533;BMP180;58088;51.186;17.130;2023-07-13T09:19:06;100193.00;;;23.80
70533;BMP180;58088;51.186;17.130;2023-07-13T09:21:39;100196.60;;;24.02
70533;BMP180;58088;51.186;17.130;2023-07-13T09:26:49;100199.80;;;24.50
70533;BMP180;58088;51.186;17.130;2023-07-13T09:29:28;100189.00;;;24.70
70533;BMP180;58088;51.186;17.130;2023-07-13T09:32:02;100186.60;;;24.80
70533;BMP180;58088;51.186;17.130;2023-07-13T09:34:32;100185.80;;;24.90
70533;BMP180;58088;51.186;17.130;2023-07-13T09:36:59;100188.80;;;25.00
70533;BMP180;58088;51.186;17.130;2023-07-13T09:39:36;100186.40;;;25.16
70533;BMP180;58088;51.186;17.130;2023-07-13T09:44:59;100187.00;;;25.30
70533;BMP180;58088;51.186;17.130;2023-07-13T09:47:40;100187.40;;;25.40
70533;BMP180;58088;51.186;17.130;2023-07-13T09:50:10;100186.80;;;25.56
70533;BMP180;58088;51.186;17.130;2023-07-13T09:52:43;100187.00;;;25.70
70533;BMP180;58088;51.186;17.130;2023-07-13T09:55:38;100188.80;;;25.90
70533;BMP180;58088;51.186;17.130;2023-07-13T09:58:23;100190.80;;;26.10
70533;BMP180;58088;51.186;17.130;2023-07-13T10:00:58;100196.80;;;26.30
70533;BMP180;58088;51.186;17.130;2023-07-13T10:03:31;100200.80;;;26.50
70533;BMP180;58088;51.186;17.130;2023-07-13T10:06:14;100190.00;;;26.50
70533;BMP180;58088;51.186;17.130;2023-07-13T10:08:41;100190.20;;;26.50
70533;BMP180;58088;51.186;17.130;2023-07-13T10:11:22;100195.40;;;26.78
70533;BMP180;58088;51.186;17.130;2023-07-13T10:13:54;100192.00;;;26.90
70533;BMP180;58088;51.186;17.130;2023-07-13T10:16:27;100192.60;;;27.00
70533;BMP180;58088;51.186;17.130;2023-07-13T10:19:11;100190.00;;;27.20
70533;BMP180;58088;51.186;17.130;2023-07-13T10:24:24;100182.40;;;27.50
70533;BMP180;58088;51.186;17.130;2023-07-13T10:27:15;100188.60;;;27.50
70533;BMP180;58088;51.186;17.130;2023-07-13T10:29:53;100200.80;;;27.60
70533;BMP180;58088;51.186;17.130;2023-07-13T10:32:24;100210.60;;;27.50
70533;BMP180;58088;51.186;17.130;2023-07-13T10:34:51;100211.40;;;27.32
70533;BMP180;58088;51.186;17.130;2023-07-13T10:37:28;100208.20;;;27.30
70533;BMP180;58088;51.186;17.130;2023-07-13T10:39:57;100202.00;;;27.44
70533;BMP180;58088;51.186;17.130;2023-07-13T10:42:37;100196.40;;;27.60
70533;BMP180;58088;51.186;17.130;2023-07-13T10:45:19;100198.60;;;27.60
70533;BMP180;58088;51.186;17.130;2023-07-13T10:47:47;100203.00;;;27.64
70533;BMP180;58088;51.186;17.130;2023-07-13T10:50:21;100201.60;;;27.60
70533;BMP180;58088;51.186;17.130;2023-07-13T10:52:51;100201.40;;;27.70
70533;BMP180;58088;51.186;17.130;2023-07-13T10:55:54;100204.20;;;27.60
70533;BMP180;58088;51.186;17.130;2023-07-13T11:01:08;100199.00;;;27.60
70533;BMP180;58088;51.186;17.130;2023-07-13T11:03:50;100201.00;;;27.70
70533;BMP180;58088;51.186;17.130;2023-07-13T11:19:37;100213.20;;;28.62
70533;BMP180;58088;51.186;17.130;2023-07-13T11:25:00;100203.40;;;28.50
70533;BMP180;58088;51.186;17.130;2023-07-13T11:27:35;100211.00;;;28.40
70533;BMP180;58088;51.186;17.130;2023-07-13T11:33:28;100205.20;;;28.20
70533;BMP180;58088;51.186;17.130;2023-07-13T11:36:07;100218.20;;;28.10
70533;BMP180;58088;51.186;17.130;2023-07-13T11:38:41;100208.00;;;27.98
70533;BMP180;58088;51.186;17.130;2023-07-13T11:41:20;100208.60;;;27.90
70533;BMP180;58088;51.186;17.130;2023-07-13T11:43:54;100204.80;;;27.90
70533;BMP180;58088;51.186;17.130;2023-07-13T11:46:24;100205.60;;;27.90
70533;BMP180;58088;51.186;17.130;2023-07-13T11:48:51;100208.40;;;27.98
70533;BMP180;58088;51.186;17.130;2023-07-13T11:51:30;100210.80;;;28.00
70533;BMP180;58088;51.186;17.130;2023-07-13T11:54:24;100209.80;;;28.00
70533;BMP180;58088;51.186;17.130;2023-07-13T11:56:56;100213.60;;;28.00
70533;BMP180;58088;51.186;17.130;2023-07-13T11:59:24;100216.20;;;28.10
70533;BMP180;58088;51.186;17.130;2023-07-13T12:01:54;100218.00;;;28.10
70533;BMP180;58088;51.186;17.130;2023-07-13T12:04:31;100208.40;;;28.12
70533;BMP180;58088;51.186;17.130;2023-07-13T12:07:07;100215.20;;;28.20
70533;BMP180;58088;51.186;17.130;2023-07-13T12:09:35;100216.40;;;28.20
70533;BMP180;58088;51.186;17.130;2023-07-13T12:12:18;100217.20;;;28.20
70533;BMP180;58088;51.186;17.130;2023-07-13T12:14:45;100223.80;;;28.20
70533;BMP180;58088;51.186;17.130;2023-07-13T12:17:23;100221.80;;;28.10
70533;BMP180;58088;51.186;17.130;2023-07-13T12:19:52;100227.00;;;28.00
70533;BMP180;58088;51.186;17.130;2023-07-13T12:22:20;100226.20;;;28.00
70533;BMP180;58088;51.186;17.130;2023-07-13T12:24:49;100231.60;;;28.08
70533;BMP180;58088;51.186;17.130;2023-07-13T12:27:23;100225.00;;;28.10
70533;BMP180;58088;51.186;17.130;2023-07-13T12:30:31;100219.40;;;28.00
70533;BMP180;58088;51.186;17.130;2023-07-13T12:33:11;100215.80;;;28.00
70533;BMP180;58088;51.186;17.130;2023-07-13T12:35:49;100207.80;;;27.94
70533;BMP180;58088;51.186;17.130;2023-07-13T12:38:17;100214.40;;;28.00
70533;BMP180;58088;51.186;17.130;2023-07-13T12:40:43;100212.00;;;28.06
70533;BMP180;58088;51.186;17.130;2023-07-13T12:43:14;100204.80;;;28.18
70533;BMP180;58088;51.186;17.130;2023-07-13T12:46:15;100203.00;;;28.30
70533;BMP180;58088;51.186;17.130;2023-07-13T12:48:43;100204.60;;;28.50
70533;BMP180;58088;51.186;17.130;2023-07-13T12:51:13;100199.80;;;28.50
70533;BMP180;58088;51.186;17.130;2023-07-13T12:53:46;100202.80;;;28.60
70533;BMP180;58088;51.186;17.130;2023-07-13T12:56:24;100198.20;;;28.70
70533;BMP180;58088;51.186;17.130;2023-07-13T12:59:00;100197.20;;;28.80
70533;BMP180;58088;51.186;17.130;2023-07-13T13:01:30;100197.20;;;28.90
70533;BMP180;58088;51.186;17.130;2023-07-13T13:04:02;100197.80;;;29.02
70533;BMP180;58088;51.186;17.130;2023-07-13T13:06:35;100199.20;;;29.20
70533;BMP180;58088;51.186;17.130;2023-07-13T13:09:03;100192.60;;;29.20
70533;BMP180;58088;51.186;17.130;2023-07-13T13:11:31;100190.20;;;29.02
70533;BMP180;58088;51.186;17.130;2023-07-13T13:13:58;100183.40;;;29.00
70533;BMP180;58088;51.186;17.130;2023-07-13T13:16:37;100182.00;;;29.10
70533;BMP180;58088;51.186;17.130;2023-07-13T13:19:26;100186.40;;;29.20
70533;BMP180;58088;51.186;17.130;2023-07-13T13:21:55;100183.40;;;29.30
70533;BMP180;58088;51.186;17.130;2023-07-13T13:24:26;100184.20;;;29.30
70533;BMP180;58088;51.186;17.130;2023-07-13T13:26:54;100183.20;;;29.30
70533;BMP180;58088;51.186;17.130;2023-07-13T13:29:24;100181.60;;;29.30
70533;BMP180;58088;51.186;17.130;2023-07-13T13:31:52;100179.80;;;29.36
70533;BMP180;58088;51.186;17.130;2023-07-13T13:34:19;100177.00;;;29.40
70533;BMP180;58088;51.186;17.130;2023-07-13T13:36:47;100176.60;;;29.40
70533;BMP180;58088;51.186;17.130;2023-07-13T13:39:37;100179.60;;;29.40
70533;BMP180;58088;51.186;17.130;2023-07-13T13:42:05;100179.00;;;29.40
70533;BMP180;58088;51.186;17.130;2023-07-13T13:44:31;100181.20;;;29.34
70533;BMP180;58088;51.186;17.130;2023-07-13T13:46:57;100175.40;;;29.40
70533;BMP180;58088;51.186;17.130;2023-07-13T13:49:26;100174.20;;;29.48
70533;BMP180;58088;51.186;17.130;2023-07-13T13:51:54;100183.00;;;29.50
70533;BMP180;58088;51.186;17.130;2023-07-13T13:54:23;100184.20;;;29.50
70533;BMP180;58088;51.186;17.130;2023-07-13T13:56:52;100183.80;;;29.50
70533;BMP180;58088;51.186;17.130;2023-07-13T13:59:19;100183.20;;;29.50
70533;BMP180;58088;51.186;17.130;2023-07-13T14:01:47;100174.40;;;29.52
70533;BMP180;58088;51.186;17.130;2023-07-13T14:04:19;100172.60;;;29.60
70533;BMP180;58088;51.186;17.130;2023-07-13T14:06:47;100170.60;;;29.60
70533;BMP180;58088;51.186;17.130;2023-07-13T14:09:16;100166.80;;;29.60
70533;BMP180;58088;51.186;17.130;2023-07-13T14:11:45;100157.40;;;29.56
70533;BMP180;58088;51.186;17.130;2023-07-13T14:14:20;100150.80;;;29.60
70533;BMP180;58088;51.186;17.130;2023-07-13T14:16:48;100155.40;;;29.60
70533;BMP180;58088;51.186;17.130;2023-07-13T14:19:19;100152.60;;;29.60
70533;BMP180;58088;51.186;17.130;2023-07-13T14:21:46;100152.00;;;29.58
70533;BMP180;58088;51.186;17.130;2023-07-13T14:24:13;100158.20;;;29.60
70533;BMP180;58088;51.186;17.130;2023-07-13T14:26:41;100160.20;;;29.70
70533;BMP180;58088;51.186;17.130;2023-07-13T14:29:16;100161.60;;;29.60
70533;BMP180;58088;51.186;17.130;2023-07-13T14:31:44;100171.00;;;29.50
70533;BMP180;58088;51.186;17.130;2023-07-13T14:34:11;100167.60;;;29.46
70533;BMP180;58088;51.186;17.130;2023-07-13T14:36:47;100165.00;;;29.30
70533;BMP180;58088;51.186;17.130;2023-07-13T14:39:22;100163.00;;;29.20
70533;BMP180;58088;51.186;17.130;2023-07-13T14:41:54;100155.80;;;29.20
70533;BMP180;58088;51.186;17.130;2023-07-13T14:44:27;100159.20;;;29.20
70533;BMP180;58088;51.186;17.130;2023-07-13T14:46:58;100160.60;;;29.10
70533;BMP180;58088;51.186;17.130;2023-07-13T14:49:31;100164.60;;;29.00
70533;BMP180;58088;51.186;17.130;2023-07-13T14:52:11;100166.00;;;28.90